sensor_id;sensor_type;location;lat;lon;timestamp;temperature;humidity
5675;DHT22;2860;54.284;10.158;2023-04-29T00:00:01;7.30;99.90
5675;DHT22;2860;54.284;10.158;2023-04-29T00:02:27;7.30;99.90
5675;DHT22;2860;54.284;10.158;2023-04-29T00:04:53;7.30;99.90
5675;DHT22;2860;54.284;10.158;2023-04-29T00:07:19;7.30;99.90
5675;DHT22;2860;54.284;10.158;2023-04-29T00:09:44;7.30;99.90
5675;DHT22;2860;54.284;10.158;2023-04-29T00:12:10;7.30;99.90
5675;DHT22;2860;54.284;10.158;2023-04-29T00:14:36;7.30;99.90
5675;DHT22;2860;54.284;10.158;2023-04-29T00:17:01;7.30;99.90
5675;DHT22;2860;54.284;10.158;2023-04-29T00:19:27;7.20;99.90
5675;DHT22;2860;54.284;10.158;2023-04-29T00:21:53;7.20;99.90
5675;DHT22;2860;54.284;10.158;2023-04-29T00:24:19;7.20;99.90
5675;DHT22;2860;54.284;10.158;2023-04-29T00:26:45;7.20;99.90
5675;DHT22;2860;54.284;10.158;2023-04-29T00:29:10;7.20;99.90
5675;DHT22;2860;54.284;10.158;2023-04-29T00:31:36;7.20;99.90
5675;DHT22;2860;54.284;10.158;2023-04-29T00:34:02;7.20;99.90
5675;DHT22;2860;54.284;10.158;2023-04-29T00:36:27;7.10;99.90
5675;DHT22;2860;54.284;10.158;2023-04-29T00:38:53;7.10;99.90
5675;DHT22;2860;54.284;10.158;2023-04-29T00:41:20;7.10;99.90
5675;DHT22;2860;54.284;10.158;2023-04-29T00:43:45;7.00;99.90
5675;DHT22;2860;54.284;10.158;2023-04-29T00:46:11;7.00;99.90
5675;DHT22;2860;54.284;10.158;2023-04-29T00:48:36;6.90;99.90
5675;DHT22;2860;54.284;10.158;2023-04-29T00:51:02;7.00;99.90
5675;DHT22;2860;54.284;10.158;2023-04-29T00:53:30;7.00;99.90
5675;DHT22;2860;54.284;10.158;2023-04-29T00:55:56;6.90;99.90
5675;DHT22;2860;54.284;10.158;2023-04-29T00:58:21;6.80;99.90
5675;DHT22;2860;54.284;10.158;2023-04-29T01:00:48;6.80;99.90
5675;DHT22;2860;54.284;10.158;2023-04-29T01:03:14;6.80;99.90
5675;DHT22;2860;54.284;10.158;2023-04-29T01:05:40;6.80;99.90
5675;DHT22;2860;54.284;10.158;2023-04-29T01:11:07;6.90;99.90
5675;DHT22;2860;54.284;10.158;2023-04-29T01:13:42;6.90;99.90
5675;DHT22;2860;54.284;10.158;2023-04-29T01:16:34;7.00;99.90
5675;DHT22;2860;54.284;10.158;2023-04-29T01:21:48;7.00;99.90
5675;DHT22;2860;54.284;10.158;2023-04-29T01:24:17;6.90;99.90
5675;DHT22;2860;54.284;10.158;2023-04-29T01:26:48;6.90;99.90
5675;DHT22;2860;54.284;10.158;2023-04-29T01:29:43;7.00;99.90
5675;DHT22;2860;54.284;10.158;2023-04-29T01:32:14;7.00;99.90
5675;DHT22;2860;54.284;10.158;2023-04-29T01:34:59;6.90;99.90
5675;DHT22;2860;54.284;10.158;2023-04-29T01:37:32;6.90;99.90
5675;DHT22;2860;54.284;10.158;2023-04-29T01:40:15;7.00;99.90
5675;DHT22;2860;54.284;10.158;2023-04-29T01:42:45;6.90;99.90
5675;DHT22;2860;54.284;10.158;2023-04-29T01:45:15;6.90;99.90
5675;DHT22;2860;54.284;10.158;2023-04-29T01:47:45;6.90;99.90
5675;DHT22;2860;54.284;10.158;2023-04-29T01:50:11;6.80;99.90
5675;DHT22;2860;54.284;10.158;2023-04-29T01:52:37;6.80;99.90
5675;DHT22;2860;54.284;10.158;2023-04-29T01:55:03;6.70;99.90
5675;DHT22;2860;54.284;10.158;2023-04-29T01:57:29;6.70;99.90
5675;DHT22;2860;54.284;10.158;2023-04-29T01:59:55;6.60;99.90
5675;DHT22;2860;54.284;10.158;2023-04-29T02:02:21;6.60;99.90
5675;DHT22;2860;54.284;10.158;2023-04-29T02:04:48;6.50;99.90
5675;DHT22;2860;54.284;10.158;2023-04-29T02:07:15;6.50;99.90
5675;DHT22;2860;54.284;10.158;2023-04-29T02:09:40;6.40;99.90
5675;DHT22;2860;54.284;10.158;2023-04-29T02:12:06;6.40;99.90
5675;DHT22;2860;54.284;10.158;2023-04-29T02:14:32;6.30;99.90
5675;DHT22;2860;54.284;10.158;2023-04-29T02:16:58;6.30;99.90
5675;DHT22;2860;54.284;10.158;2023-04-29T02:19:24;6.30;99.90
5675;DHT22;2860;54.284;10.158;2023-04-29T02:21:50;6.20;99.90
5675;DHT22;2860;54.284;10.158;2023-04-29T02:24:15;6.10;99.90
5675;DHT22;2860;54.284;10.158;2023-04-29T02:26:41;6.10;99.90
5675;DHT22;2860;54.284;10.158;2023-04-29T02:29:06;6.00;99.90
5675;DHT22;2860;54.284;10.158;2023-04-29T02:31:32;6.00;99.90
5675;DHT22;2860;54.284;10.158;2023-04-29T02:33:58;6.00;99.90
5675;DHT22;2860;54.284;10.158;2023-04-29T02:36:24;6.00;99.90
5675;DHT22;2860;54.284;10.158;2023-04-29T02:38:51;6.00;99.90
5675;DHT22;2860;54.284;10.158;2023-04-29T02:41:19;6.00;99.90
5675;DHT22;2860;54.284;10.158;2023-04-29T02:43:45;6.00;99.90
5675;DHT22;2860;54.284;10.158;2023-04-29T02:46:10;6.00;99.90
5675;DHT22;2860;54.284;10.158;2023-04-29T02:48:36;6.10;99.90
5675;DHT22;2860;54.284;10.158;2023-04-29T02:51:02;6.10;99.90
5675;DHT22;2860;54.284;10.158;2023-04-29T02:53:27;6.10;99.90
5675;DHT22;2860;54.284;10.158;2023-04-29T02:55:53;6.20;99.90
5675;DHT22;2860;54.284;10.158;2023-04-29T02:58:18;6.20;99.90
5675;DHT22;2860;54.284;10.158;2023-04-29T03:00:44;6.20;99.90
5675;DHT22;2860;54.284;10.158;2023-04-29T03:03:09;6.20;99.90
5675;DHT22;2860;54.284;10.158;2023-04-29T03:05:35;6.30;99.90
5675;DHT22;2860;54.284;10.158;2023-04-29T03:08:01;6.30;99.90
5675;DHT22;2860;54.284;10.158;2023-04-29T03:10:28;6.30;99.90
5675;DHT22;2860;54.284;10.158;2023-04-29T03:12:53;6.30;99.90
5675;DHT22;2860;54.284;10.158;2023-04-29T03:15:19;6.40;99.90
5675;DHT22;2860;54.284;10.158;2023-04-29T03:17:45;6.40;99.90
5675;DHT22;2860;54.284;10.158;2023-04-29T03:20:11;6.40;99.90
5675;DHT22;2860;54.284;10.158;2023-04-29T03:22:36;6.40;99.90
5675;DHT22;2860;54.284;10.158;2023-04-29T03:25:02;6.40;99.90
5675;DHT22;2860;54.284;10.158;2023-04-29T03:27:28;6.40;99.90
5675;DHT22;2860;54.284;10.158;2023-04-29T03:29:53;6.40;99.90
5675;DHT22;2860;54.284;10.158;2023-04-29T03:32:19;6.30;99.90
5675;DHT22;2860;54.284;10.158;2023-04-29T03:34:44;6.30;99.90
5675;DHT22;2860;54.284;10.158;2023-04-29T03:37:10;6.40;99.90
5675;DHT22;2860;54.284;10.158;2023-04-29T03:39:36;6.40;99.90
5675;DHT22;2860;54.284;10.158;2023-04-29T03:42:01;6.40;99.90
5675;DHT22;2860;54.284;10.158;2023-04-29T03:44:27;6.40;99.90
5675;DHT22;2860;54.284;10.158;2023-04-29T03:46:53;6.40;99.90
5675;DHT22;2860;54.284;10.158;2023-04-29T03:49:19;6.40;99.90
5675;DHT22;2860;54.284;10.158;2023-04-29T03:51:44;6.40;99.90
5675;DHT22;2860;54.284;10.158;2023-04-29T03:54:11;6.50;99.90
5675;DHT22;2860;54.284;10.158;2023-04-29T03:56:37;6.50;99.90
5675;DHT22;2860;54.284;10.158;2023-04-29T03:59:03;6.50;99.90
5675;DHT22;2860;54.284;10.158;2023-04-29T04:01:28;6.50;99.90
5675;DHT22;2860;54.284;10.158;2023-04-29T04:03:54;6.50;99.90
5675;DHT22;2860;54.284;10.158;2023-04-29T04:06:19;6.60;99.90
5675;DHT22;2860;54.284;10.158;2023-04-29T04:08:45;6.60;99.90
5675;DHT22;2860;54.284;10.158;2023-04-29T04:11:10;6.70;99.90
5675;DHT22;2860;54.284;10.158;2023-04-29T04:13:42;6.70;99.90
5675;DHT22;2860;54.284;10.158;2023-04-29T04:16:08;6.80;99.90
5675;DHT22;2860;54.284;10.158;2023-04-29T04:18:35;6.80;99.90
5675;DHT22;2860;54.284;10.158;2023-04-29T04:21:08;6.90;99.90
5675;DHT22;2860;54.284;10.158;2023-04-29T04:23:34;6.90;99.90
5675;DHT22;2860;54.284;10.158;2023-04-29T04:26:00;6.90;99.90
5675;DHT22;2860;54.284;10.158;2023-04-29T04:28:25;7.00;99.90
5675;DHT22;2860;54.284;10.158;2023-04-29T04:30:51;7.00;99.90
5675;DHT22;2860;54.284;10.158;2023-04-29T04:33:17;7.10;99.90
5675;DHT22;2860;54.284;10.158;2023-04-29T04:35:42;7.10;99.90
5675;DHT22;2860;54.284;10.158;2023-04-29T04:38:08;7.20;99.90
5675;DHT22;2860;54.284;10.158;2023-04-29T04:40:35;7.20;99.90
5675;DHT22;2860;54.284;10.158;2023-04-29T04:43:01;7.30;99.90
5675;DHT22;2860;54.284;10.158;2023-04-29T04:45:29;7.30;99.90
5675;DHT22;2860;54.284;10.158;2023-04-29T04:47:55;7.40;99.90
5675;DHT22;2860;54.284;10.158;2023-04-29T04:50:21;7.40;99.90
5675;DHT22;2860;54.284;10.158;2023-04-29T04:52:46;7.40;99.90
5675;DHT22;2860;54.284;10.158;2023-04-29T04:55:12;7.50;99.90
5675;DHT22;2860;54.284;10.158;2023-04-29T04:57:37;7.50;99.90
5675;DHT22;2860;54.284;10.158;2023-04-29T05:00:03;7.60;99.90
5675;DHT22;2860;54.284;10.158;2023-04-29T05:02:29;7.60;99.90
5675;DHT22;2860;54.284;10.158;2023-04-29T05:04:55;7.70;99.90
5675;DHT22;2860;54.284;10.158;2023-04-29T05:07:21;7.80;99.90
5675;DHT22;2860;54.284;10.158;2023-04-29T05:09:46;7.90;99.90
5675;DHT22;2860;54.284;10.158;2023-04-29T05:12:12;8.00;99.90
5675;DHT22;2860;54.284;10.158;2023-04-29T05:14:37;8.10;99.90
5675;DHT22;2860;54.284;10.158;2023-04-29T05:17:03;8.10;99.90
5675;DHT22;2860;54.284;10.158;2023-04-29T05:19:28;8.00;99.90
5675;DHT22;2860;54.284;10.158;2023-04-29T05:21:54;8.00;99.90
5675;DHT22;2860;54.284;10.158;2023-04-29T05:24:19;8.00;99.90
5675;DHT22;2860;54.284;10.158;2023-04-29T05:26:45;8.00;99.90
5675;DHT22;2860;54.284;10.158;2023-04-29T05:29:11;8.00;99.90
5675;DHT22;2860;54.284;10.158;2023-04-29T05:31:37;8.00;99.90
5675;DHT22;2860;54.284;10.158;2023-04-29T05:34:03;8.10;99.90
5675;DHT22;2860;54.284;10.158;2023-04-29T05:36:29;8.10;99.90
5675;DHT22;2860;54.284;10.158;2023-04-29T05:38:54;8.20;99.90
5675;DHT22;2860;54.284;10.158;2023-04-29T05:41:20;8.20;99.90
5675;DHT22;2860;54.284;10.158;2023-04-29T05:43:48;8.30;99.90
5675;DHT22;2860;54.284;10.158;2023-04-29T05:46:13;8.40;99.90
5675;DHT22;2860;54.284;10.158;2023-04-29T05:48:39;8.50;99.90
5675;DHT22;2860;54.284;10.158;2023-04-29T05:51:04;8.60;99.90
5675;DHT22;2860;54.284;10.158;2023-04-29T05:53:30;8.70;99.90
5675;DHT22;2860;54.284;10.158;2023-04-29T05:55:57;8.80;99.90
5675;DHT22;2860;54.284;10.158;2023-04-29T05:58:23;8.90;99.90
5675;DHT22;2860;54.284;10.158;2023-04-29T06:00:50;9.30;99.90
5675;DHT22;2860;54.284;10.158;2023-04-29T06:03:15;9.60;99.90
5675;DHT22;2860;54.284;10.158;2023-04-29T06:05:41;10.00;99.90
5675;DHT22;2860;54.284;10.158;2023-04-29T06:08:07;10.40;99.90
5675;DHT22;2860;54.284;10.158;2023-04-29T06:10:32;10.90;99.90
5675;DHT22;2860;54.284;10.158;2023-04-29T06:12:58;11.00;99.90
5675;DHT22;2860;54.284;10.158;2023-04-29T06:15:24;11.00;99.90
5675;DHT22;2860;54.284;10.158;2023-04-29T06:17:49;10.90;99.90
5675;DHT22;2860;54.284;10.158;2023-04-29T06:20:15;10.90;99.90
5675;DHT22;2860;54.284;10.158;2023-04-29T06:22:40;10.90;99.90
5675;DHT22;2860;54.284;10.158;2023-04-29T06:25:06;11.00;99.90
5675;DHT22;2860;54.284;10.158;2023-04-29T06:27:31;11.00;99.90
5675;DHT22;2860;54.284;10.158;2023-04-29T06:29:57;11.20;99.90
5675;DHT22;2860;54.284;10.158;2023-04-29T06:32:23;11.30;99.90
5675;DHT22;2860;54.284;10.158;2023-04-29T06:34:48;11.40;99.90
5675;DHT22;2860;54.284;10.158;2023-04-29T06:37:14;11.40;99.90
5675;DHT22;2860;54.284;10.158;2023-04-29T06:39:40;11.40;99.90
5675;DHT22;2860;54.284;10.158;2023-04-29T06:42:05;11.30;99.90
5675;DHT22;2860;54.284;10.158;2023-04-29T06:44:31;11.20;99.90
5675;DHT22;2860;54.284;10.158;2023-04-29T06:46:57;11.20;99.90
5675;DHT22;2860;54.284;10.158;2023-04-29T06:49:22;11.10;99.90
5675;DHT22;2860;54.284;10.158;2023-04-29T06:51:48;11.20;99.90
5675;DHT22;2860;54.284;10.158;2023-04-29T06:54:13;11.10;99.90
5675;DHT22;2860;54.284;10.158;2023-04-29T06:56:39;11.00;99.90
5675;DHT22;2860;54.284;10.158;2023-04-29T06:59:04;11.10;99.90
5675;DHT22;2860;54.284;10.158;2023-04-29T07:01:30;11.20;99.90
5675;DHT22;2860;54.284;10.158;2023-04-29T07:03:56;11.20;99.90
5675;DHT22;2860;54.284;10.158;2023-04-29T07:06:21;11.30;99.90
5675;DHT22;2860;54.284;10.158;2023-04-29T07:08:46;11.40;99.90
5675;DHT22;2860;54.284;10.158;2023-04-29T07:11:12;11.60;99.90
5675;DHT22;2860;54.284;10.158;2023-04-29T07:13:38;11.80;99.90
5675;DHT22;2860;54.284;10.158;2023-04-29T07:16:04;12.00;99.90
5675;DHT22;2860;54.284;10.158;2023-04-29T07:18:29;12.20;99.90
5675;DHT22;2860;54.284;10.158;2023-04-29T07:21:00;12.30;99.90
5675;DHT22;2860;54.284;10.158;2023-04-29T07:23:25;12.50;99.90
5675;DHT22;2860;54.284;10.158;2023-04-29T07:25:51;12.50;99.90
5675;DHT22;2860;54.284;10.158;2023-04-29T07:28:17;12.60;99.90
5675;DHT22;2860;54.284;10.158;2023-04-29T07:30:42;12.60;99.90
5675;DHT22;2860;54.284;10.158;2023-04-29T07:33:08;12.70;99.90
5675;DHT22;2860;54.284;10.158;2023-04-29T07:35:34;12.70;99.90
5675;DHT22;2860;54.284;10.158;2023-04-29T07:37:59;12.80;99.90
5675;DHT22;2860;54.284;10.158;2023-04-29T07:40:25;12.70;99.90
5675;DHT22;2860;54.284;10.158;2023-04-29T07:42:50;12.70;99.90
5675;DHT22;2860;54.284;10.158;2023-04-29T07:45:16;12.70;99.90
5675;DHT22;2860;54.284;10.158;2023-04-29T07:47:42;12.70;99.90
5675;DHT22;2860;54.284;10.158;2023-04-29T07:50:07;12.70;99.90
5675;DHT22;2860;54.284;10.158;2023-04-29T07:52:33;12.70;99.90
5675;DHT22;2860;54.284;10.158;2023-04-29T07:54:59;12.70;99.90
5675;DHT22;2860;54.284;10.158;2023-04-29T07:57:24;12.70;99.90
5675;DHT22;2860;54.284;10.158;2023-04-29T07:59:51;12.70;99.90
5675;DHT22;2860;54.284;10.158;2023-04-29T08:02:17;12.70;99.90
5675;DHT22;2860;54.284;10.158;2023-04-29T08:04:42;12.70;99.90
5675;DHT22;2860;54.284;10.158;2023-04-29T08:07:08;12.80;99.90
5675;DHT22;2860;54.284;10.158;2023-04-29T08:09:33;12.90;99.90
5675;DHT22;2860;54.284;10.158;2023-04-29T08:11:59;13.00;99.90
5675;DHT22;2860;54.284;10.158;2023-04-29T08:14:26;13.20;99.90
5675;DHT22;2860;54.284;10.158;2023-04-29T08:16:52;13.20;99.90
5675;DHT22;2860;54.284;10.158;2023-04-29T08:19:18;13.30;99.90
5675;DHT22;2860;54.284;10.158;2023-04-29T08:21:45;13.30;99.90
5675;DHT22;2860;54.284;10.158;2023-04-29T08:24:11;13.40;99.90
5675;DHT22;2860;54.284;10.158;2023-04-29T08:26:39;13.30;99.90
5675;DHT22;2860;54.284;10.158;2023-04-29T08:29:05;13.30;99.90
5675;DHT22;2860;54.284;10.158;2023-04-29T08:31:31;13.30;99.90
5675;DHT22;2860;54.284;10.158;2023-04-29T08:33:56;13.20;99.90
5675;DHT22;2860;54.284;10.158;2023-04-29T08:36:23;13.20;99.90
5675;DHT22;2860;54.284;10.158;2023-04-29T08:38:48;13.10;99.90
5675;DHT22;2860;54.284;10.158;2023-04-29T08:41:17;13.20;99.90
5675;DHT22;2860;54.284;10.158;2023-04-29T08:43:42;13.30;99.90
5675;DHT22;2860;54.284;10.158;2023-04-29T08:46:08;13.30;99.90
5675;DHT22;2860;54.284;10.158;2023-04-29T08:48:36;13.40;99.90
5675;DHT22;2860;54.284;10.158;2023-04-29T08:51:02;13.40;99.90
5675;DHT22;2860;54.284;10.158;2023-04-29T08:53:28;13.50;99.90
5675;DHT22;2860;54.284;10.158;2023-04-29T08:55:54;13.50;99.90
5675;DHT22;2860;54.284;10.158;2023-04-29T08:58:21;13.40;99.90
5675;DHT22;2860;54.284;10.158;2023-04-29T09:00:47;13.40;99.90
5675;DHT22;2860;54.284;10.158;2023-04-29T09:03:16;13.30;99.90
5675;DHT22;2860;54.284;10.158;2023-04-29T09:05:44;13.20;99.90
5675;DHT22;2860;54.284;10.158;2023-04-29T09:08:13;13.20;99.90
5675;DHT22;2860;54.284;10.158;2023-04-29T09:10:41;13.20;99.90
5675;DHT22;2860;54.284;10.158;2023-04-29T09:13:07;13.20;99.90
5675;DHT22;2860;54.284;10.158;2023-04-29T09:15:36;13.30;99.90
5675;DHT22;2860;54.284;10.158;2023-04-29T09:18:04;13.50;99.90
5675;DHT22;2860;54.284;10.158;2023-04-29T09:20:30;13.60;99.90
5675;DHT22;2860;54.284;10.158;2023-04-29T09:23:04;13.90;99.90
5675;DHT22;2860;54.284;10.158;2023-04-29T09:25:30;14.30;99.90
5675;DHT22;2860;54.284;10.158;2023-04-29T09:27:56;14.40;99.90
5675;DHT22;2860;54.284;10.158;2023-04-29T09:30:22;14.40;99.90
5675;DHT22;2860;54.284;10.158;2023-04-29T09:33:06;14.50;99.90
5675;DHT22;2860;54.284;10.158;2023-04-29T09:35:32;14.50;99.90
5675;DHT22;2860;54.284;10.158;2023-04-29T09:38:12;14.50;99.90
5675;DHT22;2860;54.284;10.158;2023-04-29T09:40:38;14.70;99.90
5675;DHT22;2860;54.284;10.158;2023-04-29T09:43:14;14.80;99.90
5675;DHT22;2860;54.284;10.158;2023-04-29T09:45:42;15.00;99.90
5675;DHT22;2860;54.284;10.158;2023-04-29T09:48:08;15.20;99.90
5675;DHT22;2860;54.284;10.158;2023-04-29T09:50:35;15.30;99.90
5675;DHT22;2860;54.284;10.158;2023-04-29T09:53:02;15.40;99.90
5675;DHT22;2860;54.284;10.158;2023-04-29T09:55:27;15.50;99.90
5675;DHT22;2860;54.284;10.158;2023-04-29T09:57:54;15.60;99.90
5675;DHT22;2860;54.284;10.158;2023-04-29T10:00:20;15.70;99.90
5675;DHT22;2860;54.284;10.158;2023-04-29T10:02:47;15.80;99.90
5675;DHT22;2860;54.284;10.158;2023-04-29T10:05:13;15.90;99.90
5675;DHT22;2860;54.284;10.158;2023-04-29T10:07:39;16.00;99.90
5675;DHT22;2860;54.284;10.158;2023-04-29T10:10:05;16.00;99.90
5675;DHT22;2860;54.284;10.158;2023-04-29T10:12:34;15.80;99.90
5675;DHT22;2860;54.284;10.158;2023-04-29T10:15:19;15.80;99.90
5675;DHT22;2860;54.284;10.158;2023-04-29T10:18:10;15.80;99.90
5675;DHT22;2860;54.284;10.158;2023-04-29T10:20:40;15.90;99.90
5675;DHT22;2860;54.284;10.158;2023-04-29T10:23:10;16.00;99.90
5675;DHT22;2860;54.284;10.158;2023-04-29T10:25:37;16.00;99.90
5675;DHT22;2860;54.284;10.158;2023-04-29T10:28:04;15.90;99.90
5675;DHT22;2860;54.284;10.158;2023-04-29T10:30:31;16.00;99.90
5675;DHT22;2860;54.284;10.158;2023-04-29T10:32:57;15.90;99.90
5675;DHT22;2860;54.284;10.158;2023-04-29T10:35:24;15.90;99.90
5675;DHT22;2860;54.284;10.158;2023-04-29T10:37:52;16.00;99.90
5675;DHT22;2860;54.284;10.158;2023-04-29T10:40:26;16.00;99.90
5675;DHT22;2860;54.284;10.158;2023-04-29T10:42:53;16.20;99.90
5675;DHT22;2860;54.284;10.158;2023-04-29T10:53:12;16.40;99.90
5675;DHT22;2860;54.284;10.158;2023-04-29T10:55:39;16.40;99.90
5675;DHT22;2860;54.284;10.158;2023-04-29T10:58:05;16.50;99.90
5675;DHT22;2860;54.284;10.158;2023-04-29T11:00:32;16.60;99.90
5675;DHT22;2860;54.284;10.158;2023-04-29T11:02:59;16.70;99.90
5675;DHT22;2860;54.284;10.158;2023-04-29T11:05:30;16.80;99.90
5675;DHT22;2860;54.284;10.158;2023-04-29T11:08:09;16.80;99.90
5675;DHT22;2860;54.284;10.158;2023-04-29T11:10:36;17.00;99.90
5675;DHT22;2860;54.284;10.158;2023-04-29T11:13:24;17.10;99.90
5675;DHT22;2860;54.284;10.158;2023-04-29T11:15:51;17.20;99.90
5675;DHT22;2860;54.284;10.158;2023-04-29T11:18:17;17.30;99.90
5675;DHT22;2860;54.284;10.158;2023-04-29T11:23:36;17.10;99.90
5675;DHT22;2860;54.284;10.158;2023-04-29T11:26:03;17.00;99.90
5675;DHT22;2860;54.284;10.158;2023-04-29T11:28:32;16.90;99.90
5675;DHT22;2860;54.284;10.158;2023-04-29T11:30:58;16.90;99.90
5675;DHT22;2860;54.284;10.158;2023-04-29T11:33:25;17.10;99.90
5675;DHT22;2860;54.284;10.158;2023-04-29T11:35:54;17.20;99.90
5675;DHT22;2860;54.284;10.158;2023-04-29T11:38:26;17.20;99.90
5675;DHT22;2860;54.284;10.158;2023-04-29T11:40:54;17.40;99.90
5675;DHT22;2860;54.284;10.158;2023-04-29T11:43:21;17.60;99.90
5675;DHT22;2860;54.284;10.158;2023-04-29T11:45:47;17.60;99.90
5675;DHT22;2860;54.284;10.158;2023-04-29T11:48:24;17.50;99.90
5675;DHT22;2860;54.284;10.158;2023-04-29T11:50:52;17.30;99.90
5675;DHT22;2860;54.284;10.158;2023-04-29T11:53:22;17.00;99.90
5675;DHT22;2860;54.284;10.158;2023-04-29T11:55:51;16.70;99.90
5675;DHT22;2860;54.284;10.158;2023-04-29T11:58:17;16.60;99.90
5675;DHT22;2860;54.284;10.158;2023-04-29T12:00:46;16.80;99.90
5675;DHT22;2860;54.284;10.158;2023-04-29T12:03:16;16.90;99.90
5675;DHT22;2860;54.284;10.158;2023-04-29T12:10:47;17.10;99.90
5675;DHT22;2860;54.284;10.158;2023-04-29T12:13:13;17.10;99.90
5675;DHT22;2860;54.284;10.158;2023-04-29T12:15:39;17.10;99.90
5675;DHT22;2860;54.284;10.158;2023-04-29T12:18:05;16.90;99.90
5675;DHT22;2860;54.284;10.158;2023-04-29T12:20:31;16.80;99.90
5675;DHT22;2860;54.284;10.158;2023-04-29T12:23:12;16.90;99.90
5675;DHT22;2860;54.284;10.158;2023-04-29T12:25:38;17.10;99.90
5675;DHT22;2860;54.284;10.158;2023-04-29T12:28:12;17.20;99.90
5675;DHT22;2860;54.284;10.158;2023-04-29T12:30:37;17.30;99.90
5675;DHT22;2860;54.284;10.158;2023-04-29T12:33:03;17.40;99.90
5675;DHT22;2860;54.284;10.158;2023-04-29T12:35:29;17.20;99.90
5675;DHT22;2860;54.284;10.158;2023-04-29T12:37:57;17.20;99.90
5675;DHT22;2860;54.284;10.158;2023-04-29T12:40:23;17.10;99.90
5675;DHT22;2860;54.284;10.158;2023-04-29T12:42:49;17.00;99.90
5675;DHT22;2860;54.284;10.158;2023-04-29T12:45:32;16.90;99.90
5675;DHT22;2860;54.284;10.158;2023-04-29T12:47:58;16.50;99.90
5675;DHT22;2860;54.284;10.158;2023-04-29T12:50:35;16.40;99.90
5675;DHT22;2860;54.284;10.158;2023-04-29T12:53:03;16.30;99.90
5675;DHT22;2860;54.284;10.158;2023-04-29T12:55:31;16.40;99.90
5675;DHT22;2860;54.284;10.158;2023-04-29T12:57:57;16.70;99.90
5675;DHT22;2860;54.284;10.158;2023-04-29T13:00:22;17.00;99.90
5675;DHT22;2860;54.284;10.158;2023-04-29T13:02:48;17.20;99.90
5675;DHT22;2860;54.284;10.158;2023-04-29T13:05:14;17.10;99.90
5675;DHT22;2860;54.284;10.158;2023-04-29T13:07:39;16.80;99.90
5675;DHT22;2860;54.284;10.158;2023-04-29T13:10:06;16.60;99.90
5675;DHT22;2860;54.284;10.158;2023-04-29T13:12:32;16.60;99.90
5675;DHT22;2860;54.284;10.158;2023-04-29T13:14:58;16.40;99.90
5675;DHT22;2860;54.284;10.158;2023-04-29T13:17:23;16.20;99.90
5675;DHT22;2860;54.284;10.158;2023-04-29T13:19:49;16.10;99.90
5675;DHT22;2860;54.284;10.158;2023-04-29T13:22:15;16.00;99.90
5675;DHT22;2860;54.284;10.158;2023-04-29T13:24:41;15.80;99.90
5675;DHT22;2860;54.284;10.158;2023-04-29T13:27:07;15.70;99.90
5675;DHT22;2860;54.284;10.158;2023-04-29T13:29:33;16.00;99.90
5675;DHT22;2860;54.284;10.158;2023-04-29T13:31:58;16.20;99.90
5675;DHT22;2860;54.284;10.158;2023-04-29T13:34:24;16.20;99.90
5675;DHT22;2860;54.284;10.158;2023-04-29T13:36:49;16.20;99.90
5675;DHT22;2860;54.284;10.158;2023-04-29T13:39:15;16.00;99.90
5675;DHT22;2860;54.284;10.158;2023-04-29T13:41:41;15.90;99.90
5675;DHT22;2860;54.284;10.158;2023-04-29T13:44:07;15.80;99.90
5675;DHT22;2860;54.284;10.158;2023-04-29T13:46:32;15.70;99.90
5675;DHT22;2860;54.284;10.158;2023-04-29T13:48:58;15.60;99.90
5675;DHT22;2860;54.284;10.158;2023-04-29T13:51:24;15.50;99.90
5675;DHT22;2860;54.284;10.158;2023-04-29T13:53:49;15.30;99.90
5675;DHT22;2860;54.284;10.158;2023-04-29T13:56:15;15.20;99.90
5675;DHT22;2860;54.284;10.158;2023-04-29T13:58:41;15.00;99.90
5675;DHT22;2860;54.284;10.158;2023-04-29T14:01:07;14.80;99.90
5675;DHT22;2860;54.284;10.158;2023-04-29T14:03:32;14.80;99.90
5675;DHT22;2860;54.284;10.158;2023-04-29T14:05:58;14.70;99.90
5675;DHT22;2860;54.284;10.158;2023-04-29T14:08:23;14.60;99.90
5675;DHT22;2860;54.284;10.158;2023-04-29T14:10:49;14.60;99.90
5675;DHT22;2860;54.284;10.158;2023-04-29T14:13:14;14.40;99.90
5675;DHT22;2860;54.284;10.158;2023-04-29T14:15:41;14.30;99.90
5675;DHT22;2860;54.284;10.158;2023-04-29T14:18:07;14.40;99.90
5675;DHT22;2860;54.284;10.158;2023-04-29T14:20:34;14.40;99.90
5675;DHT22;2860;54.284;10.158;2023-04-29T14:22:59;14.60;99.90
5675;DHT22;2860;54.284;10.158;2023-04-29T14:25:25;14.90;99.90
5675;DHT22;2860;54.284;10.158;2023-04-29T14:27:50;15.10;99.90
5675;DHT22;2860;54.284;10.158;2023-04-29T14:30:16;15.20;99.90
5675;DHT22;2860;54.284;10.158;2023-04-29T14:32:41;15.40;99.90
5675;DHT22;2860;54.284;10.158;2023-04-29T14:35:07;15.50;99.90
5675;DHT22;2860;54.284;10.158;2023-04-29T14:37:33;15.60;99.90
5675;DHT22;2860;54.284;10.158;2023-04-29T14:39:58;15.70;99.90
5675;DHT22;2860;54.284;10.158;2023-04-29T14:42:24;15.70;99.90
5675;DHT22;2860;54.284;10.158;2023-04-29T14:44:49;15.70;99.90
5675;DHT22;2860;54.284;10.158;2023-04-29T14:47:15;15.60;99.90
5675;DHT22;2860;54.284;10.158;2023-04-29T14:49:41;15.50;99.90
5675;DHT22;2860;54.284;10.158;2023-04-29T14:52:07;15.50;99.90
5675;DHT22;2860;54.284;10.158;2023-04-29T14:54:32;15.30;99.90
5675;DHT22;2860;54.284;10.158;2023-04-29T14:56:57;15.50;99.90
5675;DHT22;2860;54.284;10.158;2023-04-29T14:59:24;15.70;99.90
5675;DHT22;2860;54.284;10.158;2023-04-29T15:01:50;15.70;99.90
5675;DHT22;2860;54.284;10.158;2023-04-29T15:04:15;15.60;99.90
5675;DHT22;2860;54.284;10.158;2023-04-29T15:06:41;15.50;99.90
5675;DHT22;2860;54.284;10.158;2023-04-29T15:09:07;15.50;99.90
5675;DHT22;2860;54.284;10.158;2023-04-29T15:11:32;15.40;99.90
5675;DHT22;2860;54.284;10.158;2023-04-29T15:13:58;15.40;99.90
5675;DHT22;2860;54.284;10.158;2023-04-29T15:16:23;15.30;99.90
5675;DHT22;2860;54.284;10.158;2023-04-29T15:18:49;15.30;99.90
5675;DHT22;2860;54.284;10.158;2023-04-29T15:21:14;15.20;99.90
5675;DHT22;2860;54.284;10.158;2023-04-29T15:23:40;15.10;99.90
5675;DHT22;2860;54.284;10.158;2023-04-29T15:26:05;15.00;99.90
5675;DHT22;2860;54.284;10.158;2023-04-29T15:28:32;15.10;99.90
5675;DHT22;2860;54.284;10.158;2023-04-29T15:30:57;14.90;99.90
5675;DHT22;2860;54.284;10.158;2023-04-29T15:33:25;14.90;99.90
5675;DHT22;2860;54.284;10.158;2023-04-29T15:35:51;14.80;99.90
5675;DHT22;2860;54.284;10.158;2023-04-29T15:38:17;14.80;99.90
5675;DHT22;2860;54.284;10.158;2023-04-29T15:40:42;14.70;99.90
5675;DHT22;2860;54.284;10.158;2023-04-29T15:43:08;14.60;99.90
5675;DHT22;2860;54.284;10.158;2023-04-29T15:45:33;14.60;99.90
5675;DHT22;2860;54.284;10.158;2023-04-29T15:47:59;14.50;99.90
5675;DHT22;2860;54.284;10.158;2023-04-29T15:50:25;14.50;99.90
5675;DHT22;2860;54.284;10.158;2023-04-29T15:52:50;14.40;99.90
5675;DHT22;2860;54.284;10.158;2023-04-29T15:55:20;14.30;99.90
5675;DHT22;2860;54.284;10.158;2023-04-29T15:57:45;14.20;99.90
5675;DHT22;2860;54.284;10.158;2023-04-29T16:00:11;14.00;99.90
5675;DHT22;2860;54.284;10.158;2023-04-29T16:02:37;14.00;99.90
5675;DHT22;2860;54.284;10.158;2023-04-29T16:05:02;13.90;99.90
5675;DHT22;2860;54.284;10.158;2023-04-29T16:07:28;13.80;99.90
5675;DHT22;2860;54.284;10.158;2023-04-29T16:09:54;13.70;99.90